Containerships 6 — DABH — position and weather

sailwx.info

Track history (hours):
 
Tides and Currents Weather Stations Pressure Air Temp Water Temp Dewpoint Dewpoint Depression Visibility Wind Speed Wind Dir Waves Ship Positions

Containerships 6

Last reported at 2016-May-01 16:05 UTC. Time now 2016-May-01 17:31 UTC.
Position N 55°56' E 007°04'.

Length 155 m; beam 21.8 m; draft 8.9 m.

Type: Ship (hazmat cat A). MMSI: 211315096.

Date/timePositionNaut miles runAvg speedWind from/ knotsBaromVisibWave heightAir tempDewpointWater temp
2016-May-01 16:05N 55°56' E 007°04'815.6
2016-May-01 15:33N 55°49' E 006°56'1615.7
2016-May-01 14:33N 55°35' E 006°43'1615.8
2016-May-01 13:31N 55°21' E 006°28'6615.9
2016-May-01 09:23N 54°25' E 005°28'1315.3
2016-May-01 08:33N 54°15' E 005°17'1514.7
2016-May-01 07:34N 54°02' E 005°06'1514.6
2016-May-01 06:33N 53°48' E 004°57'1615.6
2016-May-01 05:33N 53°33' E 004°48'1515.5
2016-May-01 04:33N 53°19' E 004°37'1615.4
2016-May-01 03:33N 53°05' E 004°25'2015.4
2016-May-01 02:16N 52°48' E 004°10'1115.5
2016-May-01 01:33N 52°38' E 004°00'1615.8
2016-May-01 00:33N 52°23' E 003°53'1616.1
2016-Apr-30 23:34N 52°07' E 003°55'1515.1
2016-Apr-30 22:33N 51°56' E 004°12'9 8.6
2016-Apr-30 21:32N 51°53' E 004°25'0 0.0
2016-Apr-30 20:32N 51°53' E 004°25'0 0.0
2016-Apr-30 19:32N 51°53' E 004°25'0 0.0
2016-Apr-30 18:32N 51°53' E 004°25'0 0.0
2016-Apr-30 17:32N 51°53' E 004°25'0 0.0
2016-Apr-30 16:32N 51°53' E 004°25'0 0.0
2016-Apr-30 15:32N 51°53' E 004°25'0 0.0
2016-Apr-30 14:32N 51°53' E 004°25'0 0.0
2016-Apr-30 13:31N 51°53' E 004°25'0 0.0
2016-Apr-30 12:32N 51°53' E 004°25'0 0.0
2016-Apr-30 11:32N 51°53' E 004°25'0 0.0
2016-Apr-30 10:31N 51°53' E 004°25'0 0.0
2016-Apr-30 09:28N 51°53' E 004°25'0 0.0
2016-Apr-30 08:31N 51°53' E 004°25'0 0.0
2016-Apr-30 07:31N 51°53' E 004°25'3 3.2
2016-Apr-30 06:33N 51°54' E 004°20'1414.3
2016-Apr-30 05:34N 52°00' E 003°60'1414.3
2016-Apr-30 04:33N 52°05' E 003°37'5518.2
2016-Apr-30 01:32N 52°35' E 002°23'1919.0
2016-Apr-30 00:33N 52°46' E 001°58'1918.9
2016-Apr-29 23:33N 52°58' E 001°34'1919.0
2016-Apr-29 22:33N 53°14' E 001°15'5618.7
2016-Apr-29 19:33N 53°59' E 000°20'1918.6
2016-Apr-29 18:33N 54°13' W 000°01'1918.6
2016-Apr-29 17:33N 54°27' W 000°23'1818.3
2016-Apr-29 16:33N 54°37' W 000°49'1211.6
2016-Apr-29 15:33N 54°36' W 001°09'0 0.1
2016-Apr-29 14:33N 54°36' W 001°09'0 0.0
2016-Apr-29 13:33N 54°36' W 001°09'0 0.0
2016-Apr-29 11:21N 54°36' W 001°09'0 0.0
2016-Apr-29 08:32N 54°36' W 001°09'0 0.0
2016-Apr-29 07:32N 54°36' W 001°09'0 0.0
2016-Apr-29 06:32N 54°36' W 001°09'0 0.0
2016-Apr-29 04:30N 54°36' W 001°09'6 6.9
2016-Apr-29 03:33N 54°41' W 001°03'1515.0
2016-Apr-29 02:33N 54°48' W 000°39'1616.4
2016-Apr-29 01:33N 54°55' W 000°13'39016.9
2016-Apr-28 02:32N 57°47' E 010°17'1717.1
2016-Apr-28 01:34N 57°47' E 010°48'1717.3
2016-Apr-28 00:34N 57°35' E 011°12'1717.1
2016-Apr-27 23:34N 57°21' E 011°31'1717.5
2016-Apr-27 22:34N 57°05' E 011°41'1717.0
2016-Apr-27 21:33N 56°49' E 011°54'1716.9
2016-Apr-27 20:33N 56°34' E 012°09'1817.1
2016-Apr-27 19:30N 56°18' E 012°22'1617.4
2016-Apr-27 18:34N 56°04' E 012°38'1716.6
2016-Apr-27 17:34N 55°48' E 012°43'1413.5
2016-Apr-27 16:33N 55°34' E 012°42'1414.1
2016-Apr-27 15:33N 55°20' E 012°39'1514.7
2016-Apr-27 14:33N 55°16' E 013°04'1716.4
2016-Apr-27 13:32N 55°14' E 013°33'1616.6
2016-Apr-27 12:34N 55°14' E 014°02'1514.8
2016-Apr-27 11:33N 55°20' E 014°25'1515.3
2016-Apr-27 10:33N 55°26' E 014°50'1716.6
2016-Apr-27 09:34N 55°27' E 015°19'1716.6
2016-Apr-27 08:31N 55°28' E 015°49'303 9.8
2016-Apr-26 01:34N 59°16' E 021°58'1919.0
2016-Apr-26 00:33N 59°28' E 022°27'1919.0
2016-Apr-25 23:33N 59°35' E 023°02'2019.6
2016-Apr-25 22:33N 59°40' E 023°39'1919.3
2016-Apr-25 21:33N 59°46' E 024°16'11 0.5
2016-Apr-24 23:33N 59°40' E 023°59'1716.9
2016-Apr-24 22:33N 59°34' E 023°28'33716.7
2016-Apr-24 02:21N 55°44' E 015°47'1416.7
2016-Apr-24 01:32N 55°37' E 015°26'1716.8
2016-Apr-24 00:33N 55°29' E 015°01'1716.8
2016-Apr-23 23:33N 55°20' E 014°35'1616.1
2016-Apr-23 22:33N 55°10' E 014°14'1716.8
2016-Apr-23 21:33N 55°11' E 013°45'1716.9
2016-Apr-23 20:33N 55°13' E 013°15'1616.6
2016-Apr-23 19:33N 55°15' E 012°47'1413.6
2016-Apr-23 18:33N 55°29' E 012°41'1010.1
2016-Apr-23 17:33N 55°39' E 012°41'1414.4
2016-Apr-23 16:34N 55°53' E 012°40'1515.4
2016-Apr-23 15:34N 56°07' E 012°29'1716.9
2016-Apr-23 14:33N 56°17' E 012°05'2017.2
2016-Apr-23 13:25N 56°36' E 011°53'1416.8
2016-Apr-23 12:33N 56°50' E 011°48'1717.0
2016-Apr-23 11:33N 57°06' E 011°38'1717.0
2016-Apr-23 10:33N 57°22' E 011°26'1716.5
2016-Apr-23 09:33N 57°35' E 011°09'1716.6
2016-Apr-23 08:33N 57°46' E 010°45'1715.9
2016-Apr-23 07:29N 57°43' E 010°14'17015.2
2016-Apr-22 20:17N 55°38' E 006°45'1416.0
2016-Apr-22 19:23N 55°26' E 006°32'7916.2
2016-Apr-22 14:31N 54°18' E 005°22'1515.7
2016-Apr-22 13:33N 54°05' E 005°08'1615.7
2016-Apr-22 12:33N 53°50' E 004°59'1615.8
2016-Apr-22 11:33N 53°35' E 004°50'1515.1
2016-Apr-22 10:32N 53°22' E 004°39'1615.1
2016-Apr-22 09:29N 53°07' E 004°27'1415.1
2016-Apr-22 08:33N 52°54' E 004°18'1615.3
2016-Apr-22 07:32N 52°41' E 004°05'1515.4
2016-Apr-22 06:33N 52°27' E 003°54'1616.1
2016-Apr-22 05:33N 52°11' E 003°54'1313.2
2016-Apr-22 04:33N 51°59' E 004°04'1212.1
2016-Apr-22 03:33N 51°54' E 004°22'2 2.4
2016-Apr-22 02:33N 51°53' E 004°25'0 0.0
2016-Apr-22 01:33N 51°53' E 004°25'0 0.0
2016-Apr-22 00:33N 51°53' E 004°25'0 0.0
2016-Apr-21 23:33N 51°53' E 004°25'0 0.0
2016-Apr-21 22:33N 51°53' E 004°25'0 0.0
2016-Apr-21 21:33N 51°53' E 004°25'0 0.0
2016-Apr-21 20:33N 51°53' E 004°25'0 0.0
2016-Apr-21 19:33N 51°53' E 004°25'0 0.0
2016-Apr-21 18:33N 51°53' E 004°25'0 0.0
2016-Apr-21 17:33N 51°53' E 004°25'0 0.0
2016-Apr-21 16:33N 51°53' E 004°25'  
Track history (hours):
 
Tides and Currents Weather Stations Pressure Air Temp Water Temp Dewpoint Dewpoint Depression Visibility Wind Speed Wind Dir Waves Ship Positions

Containerships 6

Last reported at 2016-May-01 16:05 UTC. Time now 2016-May-01 17:31 UTC.
Position N 55°56' E 007°04'.

Length 155 m; beam 21.8 m; draft 8.9 m.

Type: Ship (hazmat cat A). MMSI: 211315096.

Date/timePositionNaut miles runAvg speedWind from/ knotsBaromVisibWave heightAir tempDewpointWater temp
2016-May-01 16:05N 55°56' E 007°04'815.6
2016-May-01 15:33N 55°49' E 006°56'1615.7
2016-May-01 14:33N 55°35' E 006°43'1615.8
2016-May-01 13:31N 55°21' E 006°28'6615.9
2016-May-01 09:23N 54°25' E 005°28'1315.3
2016-May-01 08:33N 54°15' E 005°17'1514.7
2016-May-01 07:34N 54°02' E 005°06'1514.6
2016-May-01 06:33N 53°48' E 004°57'1615.6
2016-May-01 05:33N 53°33' E 004°48'1515.5
2016-May-01 04:33N 53°19' E 004°37'1615.4
2016-May-01 03:33N 53°05' E 004°25'2015.4
2016-May-01 02:16N 52°48' E 004°10'1115.5
2016-May-01 01:33N 52°38' E 004°00'1615.8
2016-May-01 00:33N 52°23' E 003°53'1616.1
2016-Apr-30 23:34N 52°07' E 003°55'1515.1
2016-Apr-30 22:33N 51°56' E 004°12'9 8.6
2016-Apr-30 21:32N 51°53' E 004°25'0 0.0
2016-Apr-30 20:32N 51°53' E 004°25'0 0.0
2016-Apr-30 19:32N 51°53' E 004°25'0 0.0
2016-Apr-30 18:32N 51°53' E 004°25'0 0.0
2016-Apr-30 17:32N 51°53' E 004°25'0 0.0
2016-Apr-30 16:32N 51°53' E 004°25'0 0.0
2016-Apr-30 15:32N 51°53' E 004°25'0 0.0
2016-Apr-30 14:32N 51°53' E 004°25'0 0.0
2016-Apr-30 13:31N 51°53' E 004°25'0 0.0
2016-Apr-30 12:32N 51°53' E 004°25'0 0.0
2016-Apr-30 11:32N 51°53' E 004°25'0 0.0
2016-Apr-30 10:31N 51°53' E 004°25'0 0.0
2016-Apr-30 09:28N 51°53' E 004°25'0 0.0
2016-Apr-30 08:31N 51°53' E 004°25'0 0.0
2016-Apr-30 07:31N 51°53' E 004°25'3 3.2
2016-Apr-30 06:33N 51°54' E 004°20'1414.3
2016-Apr-30 05:34N 52°00' E 003°60'1414.3
2016-Apr-30 04:33N 52°05' E 003°37'5518.2
2016-Apr-30 01:32N 52°35' E 002°23'1919.0
2016-Apr-30 00:33N 52°46' E 001°58'1918.9
2016-Apr-29 23:33N 52°58' E 001°34'1919.0
2016-Apr-29 22:33N 53°14' E 001°15'5618.7
2016-Apr-29 19:33N 53°59' E 000°20'1918.6
2016-Apr-29 18:33N 54°13' W 000°01'1918.6
2016-Apr-29 17:33N 54°27' W 000°23'1818.3
2016-Apr-29 16:33N 54°37' W 000°49'1211.6
2016-Apr-29 15:33N 54°36' W 001°09'0 0.1
2016-Apr-29 14:33N 54°36' W 001°09'0 0.0
2016-Apr-29 13:33N 54°36' W 001°09'0 0.0
2016-Apr-29 11:21N 54°36' W 001°09'0 0.0
2016-Apr-29 08:32N 54°36' W 001°09'0 0.0
2016-Apr-29 07:32N 54°36' W 001°09'0 0.0
2016-Apr-29 06:32N 54°36' W 001°09'0 0.0
2016-Apr-29 04:30N 54°36' W 001°09'6 6.9
2016-Apr-29 03:33N 54°41' W 001°03'1515.0
2016-Apr-29 02:33N 54°48' W 000°39'1616.4
2016-Apr-29 01:33N 54°55' W 000°13'39016.9
2016-Apr-28 02:32N 57°47' E 010°17'1717.1
2016-Apr-28 01:34N 57°47' E 010°48'1717.3
2016-Apr-28 00:34N 57°35' E 011°12'1717.1
2016-Apr-27 23:34N 57°21' E 011°31'1717.5
2016-Apr-27 22:34N 57°05' E 011°41'1717.0
2016-Apr-27 21:33N 56°49' E 011°54'1716.9
2016-Apr-27 20:33N 56°34' E 012°09'1817.1
2016-Apr-27 19:30N 56°18' E 012°22'1617.4
2016-Apr-27 18:34N 56°04' E 012°38'1716.6
2016-Apr-27 17:34N 55°48' E 012°43'1413.5
2016-Apr-27 16:33N 55°34' E 012°42'1414.1
2016-Apr-27 15:33N 55°20' E 012°39'1514.7
2016-Apr-27 14:33N 55°16' E 013°04'1716.4
2016-Apr-27 13:32N 55°14' E 013°33'1616.6
2016-Apr-27 12:34N 55°14' E 014°02'1514.8
2016-Apr-27 11:33N 55°20' E 014°25'1515.3
2016-Apr-27 10:33N 55°26' E 014°50'1716.6
2016-Apr-27 09:34N 55°27' E 015°19'1716.6
2016-Apr-27 08:31N 55°28' E 015°49'303 9.8
2016-Apr-26 01:34N 59°16' E 021°58'1919.0
2016-Apr-26 00:33N 59°28' E 022°27'1919.0
2016-Apr-25 23:33N 59°35' E 023°02'2019.6
2016-Apr-25 22:33N 59°40' E 023°39'1919.3
2016-Apr-25 21:33N 59°46' E 024°16'11 0.5
2016-Apr-24 23:33N 59°40' E 023°59'1716.9
2016-Apr-24 22:33N 59°34' E 023°28'33716.7
2016-Apr-24 02:21N 55°44' E 015°47'1416.7
2016-Apr-24 01:32N 55°37' E 015°26'1716.8
2016-Apr-24 00:33N 55°29' E 015°01'1716.8
2016-Apr-23 23:33N 55°20' E 014°35'1616.1
2016-Apr-23 22:33N 55°10' E 014°14'1716.8
2016-Apr-23 21:33N 55°11' E 013°45'1716.9
2016-Apr-23 20:33N 55°13' E 013°15'1616.6
2016-Apr-23 19:33N 55°15' E 012°47'1413.6
2016-Apr-23 18:33N 55°29' E 012°41'1010.1
2016-Apr-23 17:33N 55°39' E 012°41'1414.4
2016-Apr-23 16:34N 55°53' E 012°40'1515.4
2016-Apr-23 15:34N 56°07' E 012°29'1716.9
2016-Apr-23 14:33N 56°17' E 012°05'2017.2
2016-Apr-23 13:25N 56°36' E 011°53'1416.8
2016-Apr-23 12:33N 56°50' E 011°48'1717.0
2016-Apr-23 11:33N 57°06' E 011°38'1717.0
2016-Apr-23 10:33N 57°22' E 011°26'1716.5
2016-Apr-23 09:33N 57°35' E 011°09'1716.6
2016-Apr-23 08:33N 57°46' E 010°45'1715.9
2016-Apr-23 07:29N 57°43' E 010°14'17015.2
2016-Apr-22 20:17N 55°38' E 006°45'1416.0
2016-Apr-22 19:23N 55°26' E 006°32'7916.2
2016-Apr-22 14:31N 54°18' E 005°22'1515.7
2016-Apr-22 13:33N 54°05' E 005°08'1615.7
2016-Apr-22 12:33N 53°50' E 004°59'1615.8
2016-Apr-22 11:33N 53°35' E 004°50'1515.1
2016-Apr-22 10:32N 53°22' E 004°39'1615.1
2016-Apr-22 09:29N 53°07' E 004°27'1415.1
2016-Apr-22 08:33N 52°54' E 004°18'1615.3
2016-Apr-22 07:32N 52°41' E 004°05'1515.4
2016-Apr-22 06:33N 52°27' E 003°54'1616.1
2016-Apr-22 05:33N 52°11' E 003°54'1313.2
2016-Apr-22 04:33N 51°59' E 004°04'1212.1
2016-Apr-22 03:33N 51°54' E 004°22'2 2.4
2016-Apr-22 02:33N 51°53' E 004°25'0 0.0
2016-Apr-22 01:33N 51°53' E 004°25'0 0.0
2016-Apr-22 00:33N 51°53' E 004°25'0 0.0
2016-Apr-21 23:33N 51°53' E 004°25'0 0.0
2016-Apr-21 22:33N 51°53' E 004°25'0 0.0
2016-Apr-21 21:33N 51°53' E 004°25'0 0.0
2016-Apr-21 20:33N 51°53' E 004°25'0 0.0
2016-Apr-21 19:33N 51°53' E 004°25'0 0.0
2016-Apr-21 18:33N 51°53' E 004°25'0 0.0
2016-Apr-21 17:33N 51°53' E 004°25'0 0.0
2016-Apr-21 16:33N 51°53' E 004°25'  

Dump ship's entire track history